Time;durP1;ratioP1;P1;durP2;ratioP2;P2;SDS_P1;SDS_P2;PMS_P1;PMS_P2;Temp;Humidity;BMP_temperature;BMP_pressure;BME280_temperature;BME280_humidity;BME280_pressure;Samples;Min_cycle;Max_cycle;Signal;HPM_P1;HPM_P2
2021/04/28 00:00:25;;;;;;;9.75;2.72;;;;;;;;;;5045594;28;20048;-58
2021/04/28 00:02:55;;;;;;;6.63;2.70;;;;;;;;;;5045016;28;20056;-58
2021/04/28 00:05:22;;;;;;;6.90;2.58;;;;;;;;;;5034541;28;20065;-55
2021/04/28 00:07:49;;;;;;;10.93;2.47;;;;;;;;;;5025091;28;20078;-57
2021/04/28 00:10:16;;;;;;;9.20;2.25;;;;;;;;;;5055574;28;20102;-58
2021/04/28 00:12:43;;;;;;;6.22;2.70;;;;;;;;;;5042084;28;20045;-56
2021/04/28 00:15:10;;;;;;;5.47;2.50;;;;;;;;;;5042241;28;20051;-57
2021/04/28 00:17:36;;;;;;;7.75;2.10;;;;;;;;;;5045538;28;20037;-57
2021/04/28 00:20:04;;;;;;;6.18;2.70;;;;;;;;;;5040879;28;20056;-57
2021/04/28 00:22:31;;;;;;;5.30;2.33;;;;;;;;;;5045634;28;20037;-56
2021/04/28 00:24:57;;;;;;;9.25;2.63;;;;;;;;;;5050629;28;20064;-57
2021/04/28 00:27:23;;;;;;;7.07;2.58;;;;;;;;;;5045946;28;20101;-55
2021/04/28 00:29:49;;;;;;;10.32;2.70;;;;;;;;;;5038403;28;20037;-55
2021/04/28 00:32:15;;;;;;;5.07;2.42;;;;;;;;;;5041663;28;20091;-57
2021/04/28 00:34:41;;;;;;;5.63;2.50;;;;;;;;;;5042954;28;20056;-57
2021/04/28 00:37:08;;;;;;;4.00;1.88;;;;;;;;;;5064001;28;20120;-56
2021/04/28 00:39:34;;;;;;;8.88;2.58;;;;;;;;;;5043427;28;20041;-56
2021/04/28 00:42:00;;;;;;;5.85;2.63;;;;;;;;;;5047060;28;20494;-58
2021/04/28 00:44:26;;;;;;;8.40;2.60;;;;;;;;;;5044886;28;20052;-57
2021/04/28 00:46:58;;;;;;;5.32;2.30;;;;;;;;;;5043376;28;20029;-58
2021/04/28 00:49:23;;;;;;;8.23;2.22;;;;;;;;;;5045285;28;20033;-57
2021/04/28 00:51:50;;;;;;;7.47;2.30;;;;;;;;;;5037392;28;20114;-57
2021/04/28 00:54:16;;;;;;;6.38;2.50;;;;;;;;;;5054044;28;20165;-57
2021/04/28 00:56:43;;;;;;;8.13;2.60;;;;;;;;;;5036705;28;20097;-55
2021/04/28 00:59:11;;;;;;;6.40;2.60;;;;;;;;;;5043034;28;20053;-56
2021/04/28 01:01:37;;;;;;;6.13;2.63;;;;;;;;;;5041557;28;20047;-58
2021/04/28 01:04:04;;;;;;;9.35;2.67;;;;;;;;;;5042282;28;20048;-56
2021/04/28 01:06:33;;;;;;;4.45;2.28;;;;;;;;;;5029424;28;20049;-53
2021/04/28 01:09:01;;;;;;;6.43;2.45;;;;;;;;;;5023690;28;20062;-58
2021/04/28 01:11:28;;;;;;;6.38;2.40;;;;;;;;;;5021230;28;20068;-58
2021/04/28 01:13:55;;;;;;;5.35;2.25;;;;;;;;;;5041691;28;20061;-57
2021/04/28 01:16:21;;;;;;;6.40;2.15;;;;;;;;;;5037502;28;20114;-58
2021/04/28 01:18:47;;;;;;;7.75;2.53;;;;;;;;;;5041206;28;20097;-58
2021/04/28 01:21:13;;;;;;;8.15;2.60;;;;;;;;;;5036746;28;20049;-57
2021/04/28 01:23:40;;;;;;;5.15;2.28;;;;;;;;;;5039807;28;20044;-54
2021/04/28 01:26:07;;;;;;;8.35;3.20;;;;;;;;;;5026089;28;20038;-58
2021/04/28 01:28:34;;;;;;;9.23;2.47;;;;;;;;;;5020205;28;20034;-57
2021/04/28 01:31:02;;;;;;;5.88;2.58;;;;;;;;;;5023675;28;20045;-56
2021/04/28 01:33:29;;;;;;;6.18;2.50;;;;;;;;;;5020026;28;20111;-59
2021/04/28 01:35:56;;;;;;;8.63;2.60;;;;;;;;;;5023559;28;20056;-56
2021/04/28 01:38:25;;;;;;;4.05;1.98;;;;;;;;;;5020686;28;20021;-55
2021/04/28 01:40:52;;;;;;;6.70;2.30;;;;;;;;;;5025047;28;20049;-57
2021/04/28 01:43:19;;;;;;;9.65;2.78;;;;;;;;;;5038869;28;20045;-55
2021/04/28 01:45:47;;;;;;;4.70;2.30;;;;;;;;;;5041965;28;20052;-52
2021/04/28 01:48:16;;;;;;;5.88;2.40;;;;;;;;;;5022028;28;20138;-58
2021/04/28 01:50:42;;;;;;;10.55;2.33;;;;;;;;;;5025395;28;20052;-55
2021/04/28 01:53:08;;;;;;;11.15;2.75;;;;;;;;;;5017474;28;20048;-57
2021/04/28 01:55:35;;;;;;;5.45;2.13;;;;;;;;;;5036421;28;20048;-58
2021/04/28 01:58:03;;;;;;;8.57;2.33;;;;;;;;;;5038835;28;20126;-58
2021/04/28 02:00:29;;;;;;;10.32;2.33;;;;;;;;;;5041603;28;20052;-57
2021/04/28 02:02:55;;;;;;;4.85;2.33;;;;;;;;;;5038315;28;20033;-57
2021/04/28 02:05:22;;;;;;;9.43;3.40;;;;;;;;;;5042453;28;20077;-55
2021/04/28 02:07:48;;;;;;;7.32;2.58;;;;;;;;;;5039815;28;20052;-56
2021/04/28 02:10:15;;;;;;;12.88;2.65;;;;;;;;;;5023245;28;20049;-56
2021/04/28 02:12:41;;;;;;;6.03;2.75;;;;;;;;;;5032497;28;20124;-55
2021/04/28 02:15:09;;;;;;;11.27;2.70;;;;;;;;;;5023877;28;20052;-52
2021/04/28 02:17:37;;;;;;;10.38;2.58;;;;;;;;;;5023508;28;20042;-57
2021/04/28 02:20:04;;;;;;;6.22;2.92;;;;;;;;;;5031999;28;20037;-58
2021/04/28 02:22:30;;;;;;;7.90;2.95;;;;;;;;;;5039587;28;20037;-57
2021/04/28 02:24:56;;;;;;;8.52;2.63;;;;;;;;;;5027145;28;20056;-53
2021/04/28 02:27:22;;;;;;;6.93;2.88;;;;;;;;;;5041672;28;20033;-56
2021/04/28 02:29:48;;;;;;;5.00;2.28;;;;;;;;;;5028471;28;20054;-57
2021/04/28 02:32:15;;;;;;;8.23;2.72;;;;;;;;;;5024915;28;20041;-56
2021/04/28 02:34:41;;;;;;;9.98;2.50;;;;;;;;;;5023507;28;20038;-57
2021/04/28 02:37:08;;;;;;;11.75;2.90;;;;;;;;;;5041598;28;20041;-56
2021/04/28 02:39:38;;;;;;;10.20;2.85;;;;;;;;;;5036016;28;20045;-57
2021/04/28 02:42:04;;;;;;;10.60;3.05;;;;;;;;;;5040345;28;20037;-57
2021/04/28 02:44:32;;;;;;;6.55;2.78;;;;;;;;;;5036303;28;20041;-56
2021/04/28 02:46:58;;;;;;;7.82;2.45;;;;;;;;;;5030575;28;20048;-57
2021/04/28 02:49:25;;;;;;;8.27;2.45;;;;;;;;;;5036413;28;20057;-56
2021/04/28 02:51:52;;;;;;;11.88;2.83;;;;;;;;;;5020624;28;20052;-57
2021/04/28 02:54:18;;;;;;;7.55;2.50;;;;;;;;;;5029974;28;20064;-57
2021/04/28 02:56:44;;;;;;;6.95;2.45;;;;;;;;;;5039236;28;20046;-55
2021/04/28 02:59:11;;;;;;;6.38;2.42;;;;;;;;;;5039919;28;20048;-57
2021/04/28 03:01:39;;;;;;;4.85;2.42;;;;;;;;;;5035813;28;20104;-57
2021/04/28 03:04:06;;;;;;;9.00;2.75;;;;;;;;;;5039748;28;20049;-58
2021/04/28 03:06:33;;;;;;;9.18;2.40;;;;;;;;;;5031508;28;20051;-56
2021/04/28 03:08:59;;;;;;;8.02;2.63;;;;;;;;;;5039821;28;20041;-56
2021/04/28 03:11:25;;;;;;;6.80;2.63;;;;;;;;;;5021662;28;20123;-55
2021/04/28 03:13:51;;;;;;;6.43;2.53;;;;;;;;;;5025906;28;20049;-57
2021/04/28 03:16:17;;;;;;;7.70;3.38;;;;;;;;;;5037851;28;20051;-53
2021/04/28 03:18:44;;;;;;;7.18;3.03;;;;;;;;;;5040058;28;20057;-55
2021/04/28 03:21:10;;;;;;;7.20;2.67;;;;;;;;;;5035453;28;20045;-52
2021/04/28 03:23:37;;;;;;;5.50;2.50;;;;;;;;;;5040151;28;20068;-54
2021/04/28 03:26:03;;;;;;;6.13;2.33;;;;;;;;;;5026382;28;20057;-55
2021/04/28 03:28:29;;;;;;;7.97;3.10;;;;;;;;;;5039737;28;20106;-56
2021/04/28 03:30:55;;;;;;;13.52;2.83;;;;;;;;;;5038693;28;20041;-56
2021/04/28 03:33:21;;;;;;;6.82;2.45;;;;;;;;;;5040261;28;20056;-55
2021/04/28 03:35:47;;;;;;;8.63;2.80;;;;;;;;;;5040526;28;20041;-54
2021/04/28 03:38:14;;;;;;;8.52;2.33;;;;;;;;;;5020614;28;20082;-56
2021/04/28 03:40:41;;;;;;;5.95;2.78;;;;;;;;;;5040582;28;20049;-55
2021/04/28 03:43:07;;;;;;;5.75;2.33;;;;;;;;;;5038043;28;20053;-57
2021/04/28 03:45:32;;;;;;;5.43;2.58;;;;;;;;;;5022059;28;20141;-57
2021/04/28 03:47:59;;;;;;;6.40;2.53;;;;;;;;;;5022684;28;20061;-56
2021/04/28 03:50:25;;;;;;;7.88;2.90;;;;;;;;;;5043394;28;20037;-56
2021/04/28 03:52:51;;;;;;;8.05;2.75;;;;;;;;;;5023543;28;20037;-58
2021/04/28 03:55:16;;;;;;;6.18;2.45;;;;;;;;;;5025369;28;20057;-55
2021/04/28 03:57:44;;;;;;;8.75;3.00;;;;;;;;;;5053572;28;20158;-55
2021/04/28 04:00:10;;;;;;;9.45;2.65;;;;;;;;;;5044084;28;20049;-56
2021/04/28 04:02:36;;;;;;;8.68;2.33;;;;;;;;;;5038534;28;20063;-57
2021/04/28 04:05:03;;;;;;;7.70;2.80;;;;;;;;;;5057973;28;20115;-56
2021/04/28 04:07:29;;;;;;;5.78;2.50;;;;;;;;;;5041254;28;20052;-56
2021/04/28 04:09:55;;;;;;;8.98;2.63;;;;;;;;;;5043384;28;20045;-56
2021/04/28 04:12:21;;;;;;;12.07;2.90;;;;;;;;;;5046375;28;20110;-57
2021/04/28 04:14:48;;;;;;;8.88;2.40;;;;;;;;;;5039433;28;20400;-50
2021/04/28 04:17:14;;;;;;;9.45;3.05;;;;;;;;;;5040486;28;20416;-53
2021/04/28 04:19:40;;;;;;;11.63;2.80;;;;;;;;;;5040582;28;20029;-53
2021/04/28 04:22:06;;;;;;;6.40;2.83;;;;;;;;;;5045092;28;20072;-54
2021/04/28 04:24:32;;;;;;;9.15;3.03;;;;;;;;;;5043622;28;20502;-53
2021/04/28 04:27:00;;;;;;;7.70;2.95;;;;;;;;;;5062600;28;20041;-54
2021/04/28 04:29:26;;;;;;;7.38;2.58;;;;;;;;;;5040790;28;20036;-56
2021/04/28 04:31:54;;;;;;;6.13;2.42;;;;;;;;;;5047346;28;20047;-54
2021/04/28 04:34:20;;;;;;;6.57;2.88;;;;;;;;;;5040312;28;20049;-52
2021/04/28 04:36:46;;;;;;;6.10;2.42;;;;;;;;;;5043011;28;20099;-57
2021/04/28 04:39:12;;;;;;;6.90;2.80;;;;;;;;;;5038946;28;20033;-56
2021/04/28 04:41:38;;;;;;;13.48;2.70;;;;;;;;;;5041102;28;20061;-52
2021/04/28 04:44:04;;;;;;;9.02;2.60;;;;;;;;;;5041996;28;20045;-55
2021/04/28 04:46:30;;;;;;;7.75;3.03;;;;;;;;;;5046514;28;20041;-55
2021/04/28 04:48:57;;;;;;;6.07;2.85;;;;;;;;;;5044522;28;20040;-55
2021/04/28 04:51:23;;;;;;;6.07;2.55;;;;;;;;;;5041968;28;20048;-57
2021/04/28 04:53:50;;;;;;;5.70;2.38;;;;;;;;;;5045594;28;20139;-56
2021/04/28 04:56:16;;;;;;;8.20;3.42;;;;;;;;;;5029506;28;20029;-54
2021/04/28 04:58:42;;;;;;;5.70;2.50;;;;;;;;;;5042398;28;20041;-56
2021/04/28 05:01:08;;;;;;;9.15;2.55;;;;;;;;;;5042111;28;20041;-52
2021/04/28 05:03:34;;;;;;;7.60;2.92;;;;;;;;;;5047764;28;20076;-56
2021/04/28 05:06:00;;;;;;;7.28;2.20;;;;;;;;;;5046767;28;20049;-55
2021/04/28 05:08:26;;;;;;;7.90;2.55;;;;;;;;;;5043367;28;20033;-57
2021/04/28 05:10:53;;;;;;;11.25;2.70;;;;;;;;;;5039469;28;20040;-56
2021/04/28 05:13:19;;;;;;;6.38;2.33;;;;;;;;;;5041844;28;20045;-57
2021/04/28 05:15:45;;;;;;;6.20;2.47;;;;;;;;;;5038096;28;20043;-55
2021/04/28 05:18:13;;;;;;;6.88;3.05;;;;;;;;;;5043750;28;20085;-54
2021/04/28 05:20:41;;;;;;;6.30;2.33;;;;;;;;;;5041637;28;20063;-53
2021/04/28 05:23:08;;;;;;;9.33;3.30;;;;;;;;;;5045176;28;20033;-56
2021/04/28 05:25:34;;;;;;;5.93;2.70;;;;;;;;;;5042007;28;20040;-56
2021/04/28 05:28:00;;;;;;;7.40;2.85;;;;;;;;;;5046316;28;20126;-56
2021/04/28 05:30:27;;;;;;;11.23;3.03;;;;;;;;;;5041965;28;20044;-56
2021/04/28 05:32:53;;;;;;;6.93;2.40;;;;;;;;;;5039353;28;20048;-56
2021/04/28 05:35:19;;;;;;;5.72;2.80;;;;;;;;;;5044511;28;20059;-56
2021/04/28 05:37:48;;;;;;;6.90;2.85;;;;;;;;;;5040954;28;20067;-57
2021/04/28 05:40:15;;;;;;;11.00;3.15;;;;;;;;;;5061491;28;20056;-56
2021/04/28 05:42:41;;;;;;;11.02;2.70;;;;;;;;;;5055020;28;20041;-57
2021/04/28 05:45:08;;;;;;;6.18;2.95;;;;;;;;;;5040455;28;20037;-56
2021/04/28 05:47:35;;;;;;;6.85;2.70;;;;;;;;;;5039849;28;20502;-58
2021/04/28 05:50:01;;;;;;;5.43;2.67;;;;;;;;;;5041281;28;20051;-57
2021/04/28 05:52:27;;;;;;;8.32;2.85;;;;;;;;;;5037687;28;20044;-55
2021/04/28 05:54:53;;;;;;;7.45;2.58;;;;;;;;;;5038448;28;20067;-57
2021/04/28 05:57:20;;;;;;;5.80;2.70;;;;;;;;;;5035566;28;20036;-55
2021/04/28 05:59:47;;;;;;;5.82;2.67;;;;;;;;;;5059943;28;20052;-56
2021/04/28 06:02:13;;;;;;;6.50;2.72;;;;;;;;;;5037057;28;20037;-56
2021/04/28 06:04:39;;;;;;;7.70;2.83;;;;;;;;;;5043169;28;20404;-56
2021/04/28 06:07:06;;;;;;;7.38;3.15;;;;;;;;;;5041579;28;20114;-55
2021/04/28 06:09:32;;;;;;;9.40;3.03;;;;;;;;;;5037920;28;20075;-57
2021/04/28 06:11:59;;;;;;;6.40;2.78;;;;;;;;;;5041177;28;20068;-57
2021/04/28 06:14:26;;;;;;;5.30;2.33;;;;;;;;;;5057683;28;20118;-56
2021/04/28 06:16:52;;;;;;;8.13;3.22;;;;;;;;;;5042831;28;20052;-57
2021/04/28 06:19:18;;;;;;;7.03;2.88;;;;;;;;;;5038699;28;20052;-55
2021/04/28 06:21:44;;;;;;;7.15;3.33;;;;;;;;;;5039167;28;20032;-56
2021/04/28 06:24:10;;;;;;;8.15;3.30;;;;;;;;;;5054996;28;20114;-56
2021/04/28 06:26:39;;;;;;;6.82;2.92;;;;;;;;;;5041831;28;20118;-57
2021/04/28 06:29:04;;;;;;;;;;;;;;;;;;5037385;28;20037;-55
2021/04/28 06:31:31;;;;;;;7.57;2.40;;;;;;;;;;5038716;28;19933;-56
2021/04/28 06:33:57;;;;;;;6.25;2.83;;;;;;;;;;5058554;28;20048;-57
2021/04/28 06:36:27;;;;;;;6.10;2.67;;;;;;;;;;5035288;28;20040;-57
2021/04/28 06:38:53;;;;;;;8.40;3.17;;;;;;;;;;5056591;28;20044;-56
2021/04/28 06:41:21;;;;;;;8.05;3.45;;;;;;;;;;5038212;28;20130;-57
2021/04/28 06:43:47;;;;;;;8.40;3.08;;;;;;;;;;5037818;28;20108;-55
2021/04/28 06:46:13;;;;;;;8.23;3.30;;;;;;;;;;5041085;28;20037;-58
2021/04/28 06:48:40;;;;;;;8.35;2.97;;;;;;;;;;5041412;28;20041;-57
2021/04/28 06:51:06;;;;;;;6.18;2.85;;;;;;;;;;5038956;28;20041;-57
2021/04/28 06:53:32;;;;;;;16.30;3.30;;;;;;;;;;5040727;28;20025;-56
2021/04/28 06:55:58;;;;;;;7.50;3.38;;;;;;;;;;5037275;28;20052;-56
2021/04/28 06:58:25;;;;;;;12.02;2.90;;;;;;;;;;5042983;28;20047;-56
2021/04/28 07:00:51;;;;;;;7.13;2.70;;;;;;;;;;5031731;28;20077;-56
2021/04/28 07:03:18;;;;;;;9.20;2.80;;;;;;;;;;5059463;28;20102;-56
2021/04/28 07:05:45;;;;;;;5.57;2.85;;;;;;;;;;5052437;28;20053;-56
2021/04/28 07:08:12;;;;;;;8.00;3.35;;;;;;;;;;5041586;28;20046;-55
2021/04/28 07:10:38;;;;;;;6.68;2.90;;;;;;;;;;5055368;28;20037;-55
2021/04/28 07:13:05;;;;;;;6.32;2.90;;;;;;;;;;5037904;28;20047;-54
2021/04/28 07:15:32;;;;;;;13.13;3.63;;;;;;;;;;5033167;28;20041;-57
2021/04/28 07:17:58;;;;;;;11.85;4.00;;;;;;;;;;5042035;28;20068;-55
2021/04/28 07:20:24;;;;;;;9.27;3.08;;;;;;;;;;5040651;28;20110;-56
2021/04/28 07:22:51;;;;;;;10.50;3.50;;;;;;;;;;5064011;28;20498;-56
2021/04/28 07:25:17;;;;;;;13.52;3.17;;;;;;;;;;5040963;28;20041;-56
2021/04/28 07:27:43;;;;;;;7.82;3.22;;;;;;;;;;5054448;28;20509;-56
2021/04/28 07:30:10;;;;;;;10.70;3.83;;;;;;;;;;5045734;28;20029;-56
2021/04/28 07:32:36;;;;;;;9.15;3.50;;;;;;;;;;5033605;28;20048;-56
2021/04/28 07:35:03;;;;;;;14.18;4.05;;;;;;;;;;5066039;28;20033;-53
2021/04/28 07:37:29;;;;;;;9.70;3.60;;;;;;;;;;5040885;28;20043;-57
2021/04/28 07:39:56;;;;;;;6.50;2.85;;;;;;;;;;5045345;28;20137;-57
2021/04/28 07:42:22;;;;;;;8.63;3.28;;;;;;;;;;5044414;28;20056;-57
2021/04/28 07:44:48;;;;;;;7.05;3.05;;;;;;;;;;5045859;28;20037;-55
2021/04/28 07:47:14;;;;;;;10.55;3.58;;;;;;;;;;5044454;28;20048;-54
2021/04/28 07:49:40;;;;;;;8.45;2.88;;;;;;;;;;5054929;28;20033;-55
2021/04/28 07:52:16;;;;;;;12.27;3.47;;;;;;;;;;5044252;28;20090;-57
2021/04/28 07:54:42;;;;;;;7.43;3.47;;;;;;;;;;5037561;28;20044;-56
2021/04/28 07:57:10;;;;;;;6.57;2.90;;;;;;;;;;5043030;28;20036;-54
2021/04/28 07:59:36;;;;;;;7.35;3.45;;;;;;;;;;5048001;28;20040;-56
2021/04/28 08:02:02;;;;;;;9.57;2.72;;;;;;;;;;5044633;28;20032;-57
2021/04/28 08:04:28;;;;;;;9.52;4.00;;;;;;;;;;5061920;28;20059;-53
2021/04/28 08:06:55;;;;;;;10.10;3.47;;;;;;;;;;5043642;28;20036;-57
2021/04/28 08:09:21;;;;;;;10.82;3.25;;;;;;;;;;5044276;28;20033;-56
2021/04/28 08:11:47;;;;;;;8.10;3.40;;;;;;;;;;5043666;28;20101;-56
2021/04/28 08:14:13;;;;;;;18.30;3.67;;;;;;;;;;5024432;28;20037;-56
2021/04/28 08:16:39;;;;;;;8.02;3.53;;;;;;;;;;5026870;28;20033;-57
2021/04/28 08:19:06;;;;;;;9.65;3.70;;;;;;;;;;5030858;28;20111;-57
2021/04/28 08:21:31;;;;;;;7.32;2.90;;;;;;;;;;5022708;28;20455;-56
2021/04/28 08:23:57;;;;;;;10.05;3.83;;;;;;;;;;5023161;28;20048;-57
2021/04/28 08:26:24;;;;;;;8.90;3.40;;;;;;;;;;5026191;28;20033;-56
2021/04/28 08:28:50;;;;;;;10.70;3.33;;;;;;;;;;5020177;28;20068;-57
2021/04/28 08:31:17;;;;;;;8.02;3.30;;;;;;;;;;5025380;28;20033;-57
2021/04/28 08:33:44;;;;;;;9.13;4.00;;;;;;;;;;5021409;28;20076;-56
2021/04/28 08:36:13;;;;;;;8.30;3.78;;;;;;;;;;5025458;28;20069;-56
2021/04/28 08:38:38;;;;;;;;;;;;;;;;;;5021248;28;20041;-55
2021/04/28 08:41:06;;;;;;;7.97;3.25;;;;;;;;;;5025022;28;19924;-56
2021/04/28 08:43:32;;;;;;;10.65;3.75;;;;;;;;;;5038345;28;20076;-56
2021/04/28 08:45:59;;;;;;;9.18;3.25;;;;;;;;;;5025650;28;20037;-56
2021/04/28 08:48:26;;;;;;;10.82;3.97;;;;;;;;;;5022231;28;20052;-57
2021/04/28 08:50:52;;;;;;;13.02;5.40;;;;;;;;;;5022527;28;20135;-57
2021/04/28 08:53:18;;;;;;;6.45;3.30;;;;;;;;;;5023559;28;20049;-57
2021/04/28 08:55:45;;;;;;;6.72;3.50;;;;;;;;;;5037919;28;20040;-57
2021/04/28 08:58:12;;;;;;;7.03;3.47;;;;;;;;;;5023981;28;20049;-54
2021/04/28 09:00:38;;;;;;;9.00;3.30;;;;;;;;;;5032201;28;20044;-58
2021/04/28 09:03:04;;;;;;;9.43;3.47;;;;;;;;;;5043210;28;20041;-57
2021/04/28 09:05:32;;;;;;;8.07;3.70;;;;;;;;;;5036640;28;20045;-58
2021/04/28 09:07:59;;;;;;;6.83;3.37;;;;;;;;;;5041599;28;20045;-58
2021/04/28 09:10:26;;;;;;;11.13;4.00;;;;;;;;;;5016537;28;20053;-58
2021/04/28 09:12:53;;;;;;;17.27;3.60;;;;;;;;;;5009812;28;20106;-57
2021/04/28 09:15:33;;;;;;;13.07;4.53;;;;;;;;;;5021019;28;20155;-58
2021/04/28 09:18:00;;;;;;;9.80;4.00;;;;;;;;;;5055085;28;20079;-58
2021/04/28 09:20:29;;;;;;;7.57;3.80;;;;;;;;;;5035191;28;20047;-58
2021/04/28 09:23:11;;;;;;;11.93;3.88;;;;;;;;;;5040884;28;20041;-58
2021/04/28 09:25:39;;;;;;;6.63;3.35;;;;;;;;;;5028839;28;20041;-54
2021/04/28 09:28:22;;;;;;;8.70;3.72;;;;;;;;;;5023863;28;20058;-59
2021/04/28 09:30:48;;;;;;;11.55;3.50;;;;;;;;;;5020055;28;20052;-58
2021/04/28 09:33:15;;;;;;;8.23;3.42;;;;;;;;;;5016374;28;20042;-58
2021/04/28 09:35:41;;;;;;;9.13;4.35;;;;;;;;;;5022930;28;20041;-58
2021/04/28 09:38:10;;;;;;;8.57;4.13;;;;;;;;;;5041872;28;20057;-58
2021/04/28 09:40:41;;;;;;;11.52;3.65;;;;;;;;;;5037493;28;20048;-59
2021/04/28 09:43:07;;;;;;;13.02;3.88;;;;;;;;;;5040607;28;20056;-58
2021/04/28 09:45:44;;;;;;;12.23;4.75;;;;;;;;;;5041701;28;20033;-57
2021/04/28 09:48:11;;;;;;;26.67;5.10;;;;;;;;;;5040937;28;20029;-59
2021/04/28 09:50:37;;;;;;;11.27;5.30;;;;;;;;;;5038945;28;20041;-57
2021/04/28 09:53:04;;;;;;;14.13;4.20;;;;;;;;;;5023078;28;20052;-57
2021/04/28 09:55:31;;;;;;;14.15;4.30;;;;;;;;;;5039811;28;20037;-56
2021/04/28 09:57:58;;;;;;;14.40;4.00;;;;;;;;;;5037313;28;20049;-55
2021/04/28 10:00:25;;;;;;;8.88;4.50;;;;;;;;;;5043004;28;20094;-52
2021/04/28 10:02:53;;;;;;;12.65;4.70;;;;;;;;;;5013032;28;20057;-63
2021/04/28 10:05:23;;;;;;;10.82;4.63;;;;;;;;;;5063603;28;20041;-54
2021/04/28 10:07:50;;;;;;;17.40;4.72;;;;;;;;;;5032122;28;20046;-58
2021/04/28 10:10:17;;;;;;;10.20;3.85;;;;;;;;;;5034786;28;20069;-58
2021/04/28 10:12:44;;;;;;;8.63;4.15;;;;;;;;;;5031182;28;20037;-56
2021/04/28 10:15:11;;;;;;;9.55;4.63;;;;;;;;;;5022838;28;20045;-58
2021/04/28 10:17:37;;;;;;;12.00;4.60;;;;;;;;;;5015905;28;20109;-55
2021/04/28 10:20:05;;;;;;;10.38;4.68;;;;;;;;;;5023532;28;20111;-55
2021/04/28 10:22:32;;;;;;;10.80;4.22;;;;;;;;;;5019468;28;20049;-57
2021/04/28 10:24:59;;;;;;;14.07;5.38;;;;;;;;;;5023669;28;20049;-58
2021/04/28 10:27:26;;;;;;;10.48;4.18;;;;;;;;;;5018649;28;20052;-57
2021/04/28 10:29:54;;;;;;;12.73;4.63;;;;;;;;;;5021670;28;20115;-58
2021/04/28 10:32:21;;;;;;;10.65;4.40;;;;;;;;;;5022229;28;20033;-56
2021/04/28 10:34:49;;;;;;;8.93;4.18;;;;;;;;;;5036334;28;20167;-57
2021/04/28 10:37:16;;;;;;;8.13;4.07;;;;;;;;;;5022249;28;20041;-57
2021/04/28 10:39:46;;;;;;;10.52;4.55;;;;;;;;;;5018352;28;20279;-58
2021/04/28 10:42:26;;;;;;;9.25;3.97;;;;;;;;;;5022952;28;20041;-58
2021/04/28 10:44:54;;;;;;;8.75;4.13;;;;;;;;;;5022815;28;20040;-58
2021/04/28 10:47:23;;;;;;;10.18;4.70;;;;;;;;;;5045080;28;20051;-57
2021/04/28 10:50:04;;;;;;;14.32;5.07;;;;;;;;;;5044069;28;20033;-60
2021/04/28 10:52:32;;;;;;;10.80;4.50;;;;;;;;;;5041581;28;20051;-57
2021/04/28 10:54:59;;;;;;;9.02;3.95;;;;;;;;;;5024476;28;20052;-55
2021/04/28 10:57:33;;;;;;;10.93;4.95;;;;;;;;;;5018963;28;20045;-56
2021/04/28 11:00:01;;;;;;;12.00;5.60;;;;;;;;;;5031441;28;20045;-59
2021/04/28 11:02:29;;;;;;;13.82;5.28;;;;;;;;;;5043594;28;20033;-54
2021/04/28 11:04:55;;;;;;;;;;;;;;;;;;5053647;28;20186;-58
2021/04/28 11:07:36;;;;;;;10.35;5.00;;;;;;;;;;5044357;28;19921;-62
2021/04/28 11:10:18;;;;;;;11.93;4.90;;;;;;;;;;5041973;28;20032;-61
2021/04/28 11:13:08;;;;;;;8.40;4.68;;;;;;;;;;5042726;28;20055;-52
2021/04/28 11:15:48;;;;;;;10.68;4.95;;;;;;;;;;5020414;28;20350;-54
2021/04/28 11:18:32;;;;;;;10.65;4.78;;;;;;;;;;5059369;28;20041;-53
2021/04/28 11:21:11;;;;;;;12.43;5.65;;;;;;;;;;5044162;28;20089;-55
2021/04/28 11:23:38;;;;;;;12.38;4.93;;;;;;;;;;5042480;28;20029;-56
2021/04/28 11:26:19;;;;;;;12.30;5.32;;;;;;;;;;5039545;28;20109;-52
2021/04/28 11:28:49;;;;;;;13.27;5.15;;;;;;;;;;5040001;28;20037;-55
2021/04/28 11:31:22;;;;;;;9.63;4.78;;;;;;;;;;5041296;28;20081;-59
2021/04/28 11:33:48;;;;;;;11.27;5.07;;;;;;;;;;5045479;28;20040;-57
2021/04/28 11:36:19;;;;;;;15.25;5.63;;;;;;;;;;5042806;28;20044;-59
2021/04/28 11:38:47;;;;;;;11.32;4.65;;;;;;;;;;5062671;28;20044;-56
2021/04/28 11:41:14;;;;;;;10.20;4.97;;;;;;;;;;5037959;28;20045;-57
2021/04/28 11:43:41;;;;;;;12.32;4.85;;;;;;;;;;5018995;28;20223;-58
2021/04/28 11:46:09;;;;;;;10.57;5.00;;;;;;;;;;5029097;28;20184;-56
2021/04/28 11:48:37;;;;;;;11.47;5.33;;;;;;;;;;5044723;28;20111;-59
2021/04/28 11:51:05;;;;;;;11.83;5.57;;;;;;;;;;5041846;28;20089;-55
2021/04/28 11:53:31;;;;;;;12.85;5.65;;;;;;;;;;5040534;28;20049;-58
2021/04/28 11:55:58;;;;;;;11.98;5.30;;;;;;;;;;5040612;28;20043;-59
2021/04/28 11:58:26;;;;;;;9.13;4.80;;;;;;;;;;5062313;28;20037;-59
2021/04/28 12:01:00;;;;;;;14.90;5.82;;;;;;;;;;5045136;28;20068;-57
2021/04/28 12:03:26;;;;;;;10.18;5.03;;;;;;;;;;5040255;28;20123;-57
2021/04/28 12:06:01;;;;;;;13.30;6.13;;;;;;;;;;5041897;28;20097;-60
2021/04/28 12:08:29;;;;;;;12.07;5.90;;;;;;;;;;5038494;28;20056;-59
2021/04/28 12:10:55;;;;;;;13.05;5.97;;;;;;;;;;5024632;28;20041;-60
2021/04/28 12:13:21;;;;;;;13.38;5.68;;;;;;;;;;5055774;28;20045;-59
2021/04/28 12:15:54;;;;;;;14.10;6.20;;;;;;;;;;5036572;28;20025;-61
2021/04/28 12:18:31;;;;;;;11.40;5.65;;;;;;;;;;5044950;28;20025;-60
2021/04/28 12:20:59;;;;;;;17.02;6.78;;;;;;;;;;5046314;28;20041;-59
2021/04/28 12:23:25;;;;;;;15.88;6.70;;;;;;;;;;5041790;28;20052;-56
2021/04/28 12:25:51;;;;;;;17.85;8.00;;;;;;;;;;5041623;28;20043;-57
2021/04/28 12:28:18;;;;;;;15.65;6.57;;;;;;;;;;5034644;28;20041;-59
2021/04/28 12:30:44;;;;;;;15.85;7.38;;;;;;;;;;5044404;28;20064;-54
2021/04/28 12:33:10;;;;;;;18.60;6.88;;;;;;;;;;5039791;28;20052;-57
2021/04/28 12:35:37;;;;;;;14.60;6.80;;;;;;;;;;5044527;28;20122;-60
2021/04/28 12:38:05;;;;;;;15.38;7.82;;;;;;;;;;5037224;28;20041;-52
2021/04/28 12:40:32;;;;;;;14.45;6.72;;;;;;;;;;5041767;28;20052;-52
2021/04/28 12:42:59;;;;;;;14.30;7.03;;;;;;;;;;5023774;28;20055;-57
2021/04/28 12:45:25;;;;;;;12.98;6.70;;;;;;;;;;5060500;28;20143;-55
2021/04/28 12:47:52;;;;;;;13.82;7.05;;;;;;;;;;5057913;28;20034;-58
2021/04/28 12:50:20;;;;;;;14.43;6.45;;;;;;;;;;5023192;28;20041;-57
2021/04/28 12:52:46;;;;;;;14.50;6.55;;;;;;;;;;5023412;28;20033;-56
2021/04/28 12:55:27;;;;;;;17.60;6.93;;;;;;;;;;5039480;28;20068;-60
2021/04/28 12:57:56;;;;;;;16.42;6.68;;;;;;;;;;5048235;28;20113;-61
2021/04/28 13:00:22;;;;;;;16.55;6.90;;;;;;;;;;5037617;28;20034;-58
2021/04/28 13:03:06;;;;;;;15.48;6.97;;;;;;;;;;5043631;28;20134;-59
2021/04/28 13:05:32;;;;;;;14.15;6.45;;;;;;;;;;5022702;28;20047;-58
2021/04/28 13:08:14;;;;;;;13.30;6.78;;;;;;;;;;5033670;28;20053;-60
2021/04/28 13:10:56;;;;;;;19.92;6.95;;;;;;;;;;5036675;28;20054;-55
2021/04/28 13:13:30;;;;;;;15.45;7.10;;;;;;;;;;5040366;28;20048;-57
2021/04/28 13:15:56;;;;;;;14.98;7.35;;;;;;;;;;5036729;28;20044;-60
2021/04/28 13:18:22;;;;;;;13.05;6.22;;;;;;;;;;5040919;28;20029;-55
2021/04/28 13:20:50;;;;;;;13.13;6.30;;;;;;;;;;5042177;28;20125;-58
2021/04/28 13:23:16;;;;;;;;;;;;;;;;;;5079486;28;20045;-57
2021/04/28 13:25:50;;;;;;;16.30;6.55;;;;;;;;;;5039457;28;19931;-55
2021/04/28 13:28:31;;;;;;;14.02;6.10;;;;;;;;;;5044886;28;20109;-60
2021/04/28 13:31:17;;;;;;;12.70;5.93;;;;;;;;;;5039345;28;20037;-58
2021/04/28 13:33:43;;;;;;;15.75;6.35;;;;;;;;;;5043471;28;20085;-58
2021/04/28 13:36:20;;;;;;;19.30;7.00;;;;;;;;;;5037677;28;20053;-58
2021/04/28 13:38:46;;;;;;;12.77;6.63;;;;;;;;;;5023602;28;20029;-59
2021/04/28 13:41:12;;;;;;;12.40;6.30;;;;;;;;;;5049496;28;20032;-54
2021/04/28 13:43:39;;;;;;;19.40;7.38;;;;;;;;;;5034513;28;20110;-59
2021/04/28 13:46:05;;;;;;;13.90;6.43;;;;;;;;;;5037029;28;20033;-59
2021/04/28 13:48:31;;;;;;;14.43;6.40;;;;;;;;;;5024206;28;20069;-58
2021/04/28 13:50:57;;;;;;;12.43;6.30;;;;;;;;;;5039946;28;20040;-59
2021/04/28 13:53:23;;;;;;;14.38;6.85;;;;;;;;;;5045184;28;20091;-57
2021/04/28 13:55:54;;;;;;;15.75;7.05;;;;;;;;;;5042954;28;20651;-53
2021/04/28 13:58:24;;;;;;;13.05;6.43;;;;;;;;;;5046261;28;20051;-57
2021/04/28 14:00:51;;;;;;;12.93;6.28;;;;;;;;;;5059514;28;20052;-58
2021/04/28 14:03:17;;;;;;;13.88;5.93;;;;;;;;;;5062810;28;20064;-58
2021/04/28 14:05:43;;;;;;;12.77;6.45;;;;;;;;;;5060837;28;20044;-58
2021/04/28 14:08:10;;;;;;;15.73;6.55;;;;;;;;;;5042189;28;20052;-56
2021/04/28 14:10:36;;;;;;;12.82;6.32;;;;;;;;;;5043302;28;20051;-57
2021/04/28 14:13:02;;;;;;;14.48;6.47;;;;;;;;;;5040768;28;20032;-60
2021/04/28 14:15:28;;;;;;;14.63;7.25;;;;;;;;;;5044401;28;20040;-60
2021/04/28 14:17:55;;;;;;;14.18;6.93;;;;;;;;;;5038985;28;20041;-59
2021/04/28 14:20:21;;;;;;;17.35;7.60;;;;;;;;;;5043984;28;20044;-57
2021/04/28 14:22:47;;;;;;;17.85;7.50;;;;;;;;;;5036616;28;20037;-59
2021/04/28 14:25:14;;;;;;;15.10;7.32;;;;;;;;;;5028956;28;20028;-59
2021/04/28 14:27:43;;;;;;;12.63;6.43;;;;;;;;;;5038398;28;20060;-59
2021/04/28 14:30:09;;;;;;;13.82;5.70;;;;;;;;;;5039174;28;20036;-56
2021/04/28 14:32:35;;;;;;;13.23;6.43;;;;;;;;;;5039466;28;20037;-59
2021/04/28 14:35:03;;;;;;;14.55;6.85;;;;;;;;;;5039237;28;20080;-57
2021/04/28 14:37:29;;;;;;;12.10;6.57;;;;;;;;;;5038260;28;20048;-55
2021/04/28 14:39:55;;;;;;;14.15;6.95;;;;;;;;;;5042211;28;20285;-57